sensor_id;sensor_type;location;lat;lon;timestamp;temperature;humidity
64715;DHT22;51144;53.002;6.506;2022-08-19T00:00:08;16.50;99.90
64715;DHT22;51144;53.002;6.506;2022-08-19T00:02:35;16.40;99.90
64715;DHT22;51144;53.002;6.506;2022-08-19T00:05:00;16.30;99.90
64715;DHT22;51144;53.002;6.506;2022-08-19T00:07:26;16.30;99.90
64715;DHT22;51144;53.002;6.506;2022-08-19T00:09:52;16.30;99.90
64715;DHT22;51144;53.002;6.506;2022-08-19T00:12:17;16.40;99.90
64715;DHT22;51144;53.002;6.506;2022-08-19T00:14:43;16.40;99.90
64715;DHT22;51144;53.002;6.506;2022-08-19T00:17:08;16.40;99.90
64715;DHT22;51144;53.002;6.506;2022-08-19T00:19:35;16.50;99.90
64715;DHT22;51144;53.002;6.506;2022-08-19T00:22:01;16.50;99.90
64715;DHT22;51144;53.002;6.506;2022-08-19T00:24:27;16.50;99.90
64715;DHT22;51144;53.002;6.506;2022-08-19T00:26:54;16.50;99.90
64715;DHT22;51144;53.002;6.506;2022-08-19T00:29:21;16.50;99.90
64715;DHT22;51144;53.002;6.506;2022-08-19T00:31:51;16.40;99.90
64715;DHT22;51144;53.002;6.506;2022-08-19T00:34:21;16.40;99.90
64715;DHT22;51144;53.002;6.506;2022-08-19T00:36:47;16.30;99.90
64715;DHT22;51144;53.002;6.506;2022-08-19T00:39:16;16.20;99.90
64715;DHT22;51144;53.002;6.506;2022-08-19T00:41:43;16.10;99.90
64715;DHT22;51144;53.002;6.506;2022-08-19T00:44:20;16.10;99.90
64715;DHT22;51144;53.002;6.506;2022-08-19T00:46:47;16.00;99.90
64715;DHT22;51144;53.002;6.506;2022-08-19T00:51:54;15.90;99.90
64715;DHT22;51144;53.002;6.506;2022-08-19T00:54:21;15.90;99.90
64715;DHT22;51144;53.002;6.506;2022-08-19T00:56:47;15.80;99.90
64715;DHT22;51144;53.002;6.506;2022-08-19T00:59:15;15.80;99.90
64715;DHT22;51144;53.002;6.506;2022-08-19T01:01:42;15.70;99.90
64715;DHT22;51144;53.002;6.506;2022-08-19T01:04:09;15.60;99.90
64715;DHT22;51144;53.002;6.506;2022-08-19T01:06:36;15.60;99.90
64715;DHT22;51144;53.002;6.506;2022-08-19T01:09:07;15.60;99.90
64715;DHT22;51144;53.002;6.506;2022-08-19T01:11:36;15.50;99.90
64715;DHT22;51144;53.002;6.506;2022-08-19T01:14:03;15.50;99.90
64715;DHT22;51144;53.002;6.506;2022-08-19T01:16:30;15.50;99.90
64715;DHT22;51144;53.002;6.506;2022-08-19T01:18:56;15.50;99.90
64715;DHT22;51144;53.002;6.506;2022-08-19T01:21:32;15.50;99.90
64715;DHT22;51144;53.002;6.506;2022-08-19T01:23:59;15.50;99.90
64715;DHT22;51144;53.002;6.506;2022-08-19T01:26:26;15.50;99.90
64715;DHT22;51144;53.002;6.506;2022-08-19T01:28:55;15.50;99.90
64715;DHT22;51144;53.002;6.506;2022-08-19T01:31:24;15.50;99.90
64715;DHT22;51144;53.002;6.506;2022-08-19T01:33:52;15.40;99.90
64715;DHT22;51144;53.002;6.506;2022-08-19T01:36:31;15.40;99.90
64715;DHT22;51144;53.002;6.506;2022-08-19T01:38:57;15.40;99.90
64715;DHT22;51144;53.002;6.506;2022-08-19T01:41:24;15.30;99.90
64715;DHT22;51144;53.002;6.506;2022-08-19T01:43:50;15.30;99.90
64715;DHT22;51144;53.002;6.506;2022-08-19T01:46:17;15.40;99.90
64715;DHT22;51144;53.002;6.506;2022-08-19T01:48:43;15.50;99.90
64715;DHT22;51144;53.002;6.506;2022-08-19T01:51:10;15.50;99.90
64715;DHT22;51144;53.002;6.506;2022-08-19T01:53:40;15.50;99.90
64715;DHT22;51144;53.002;6.506;2022-08-19T01:56:07;15.60;99.90
64715;DHT22;51144;53.002;6.506;2022-08-19T01:58:36;15.60;99.90
64715;DHT22;51144;53.002;6.506;2022-08-19T02:01:05;15.60;99.90
64715;DHT22;51144;53.002;6.506;2022-08-19T02:03:31;15.60;99.90
64715;DHT22;51144;53.002;6.506;2022-08-19T02:05:59;15.60;99.90
64715;DHT22;51144;53.002;6.506;2022-08-19T02:08:29;15.60;99.90
64715;DHT22;51144;53.002;6.506;2022-08-19T02:10:56;15.60;99.90
64715;DHT22;51144;53.002;6.506;2022-08-19T02:13:22;15.60;99.90
64715;DHT22;51144;53.002;6.506;2022-08-19T02:15:48;15.60;99.90
64715;DHT22;51144;53.002;6.506;2022-08-19T02:18:14;15.60;99.90
64715;DHT22;51144;53.002;6.506;2022-08-19T02:20:42;15.60;99.90
64715;DHT22;51144;53.002;6.506;2022-08-19T02:23:13;15.60;99.90
64715;DHT22;51144;53.002;6.506;2022-08-19T02:25:39;15.50;99.90
64715;DHT22;51144;53.002;6.506;2022-08-19T02:28:05;15.50;99.90
64715;DHT22;51144;53.002;6.506;2022-08-19T02:30:31;15.50;99.90
64715;DHT22;51144;53.002;6.506;2022-08-19T02:32:56;15.50;99.90
64715;DHT22;51144;53.002;6.506;2022-08-19T02:35:23;15.50;99.90
64715;DHT22;51144;53.002;6.506;2022-08-19T02:37:49;15.50;99.90
64715;DHT22;51144;53.002;6.506;2022-08-19T02:40:33;15.40;99.90
64715;DHT22;51144;53.002;6.506;2022-08-19T02:43:00;15.50;99.90
64715;DHT22;51144;53.002;6.506;2022-08-19T02:45:26;15.40;99.90
64715;DHT22;51144;53.002;6.506;2022-08-19T02:47:52;15.40;99.90
64715;DHT22;51144;53.002;6.506;2022-08-19T02:50:18;15.40;99.90
64715;DHT22;51144;53.002;6.506;2022-08-19T02:52:43;15.40;99.90
64715;DHT22;51144;53.002;6.506;2022-08-19T02:55:10;15.40;99.90
64715;DHT22;51144;53.002;6.506;2022-08-19T02:57:35;15.30;99.90
64715;DHT22;51144;53.002;6.506;2022-08-19T03:00:05;15.40;99.90
64715;DHT22;51144;53.002;6.506;2022-08-19T03:02:31;15.30;99.90
64715;DHT22;51144;53.002;6.506;2022-08-19T03:04:56;15.30;99.90
64715;DHT22;51144;53.002;6.506;2022-08-19T03:07:22;15.30;99.90
64715;DHT22;51144;53.002;6.506;2022-08-19T03:09:47;15.30;99.90
64715;DHT22;51144;53.002;6.506;2022-08-19T03:12:13;15.30;99.90
64715;DHT22;51144;53.002;6.506;2022-08-19T03:14:39;15.40;99.90
64715;DHT22;51144;53.002;6.506;2022-08-19T03:17:05;15.40;99.90
64715;DHT22;51144;53.002;6.506;2022-08-19T03:19:33;15.30;99.90
64715;DHT22;51144;53.002;6.506;2022-08-19T03:21:59;15.30;99.90
64715;DHT22;51144;53.002;6.506;2022-08-19T03:24:28;15.20;99.90
64715;DHT22;51144;53.002;6.506;2022-08-19T03:26:55;15.20;99.90
64715;DHT22;51144;53.002;6.506;2022-08-19T03:29:25;15.10;99.90
64715;DHT22;51144;53.002;6.506;2022-08-19T03:31:51;15.10;99.90
64715;DHT22;51144;53.002;6.506;2022-08-19T03:34:20;15.00;99.90
64715;DHT22;51144;53.002;6.506;2022-08-19T03:36:46;15.00;99.90
64715;DHT22;51144;53.002;6.506;2022-08-19T03:39:13;15.00;99.90
64715;DHT22;51144;53.002;6.506;2022-08-19T03:41:41;15.00;99.90
64715;DHT22;51144;53.002;6.506;2022-08-19T03:44:07;15.00;99.90
64715;DHT22;51144;53.002;6.506;2022-08-19T03:46:34;14.90;99.90
64715;DHT22;51144;53.002;6.506;2022-08-19T03:49:06;14.90;99.90
64715;DHT22;51144;53.002;6.506;2022-08-19T03:51:37;15.00;99.90
64715;DHT22;51144;53.002;6.506;2022-08-19T03:54:06;15.00;99.90
64715;DHT22;51144;53.002;6.506;2022-08-19T03:56:35;15.00;99.90
64715;DHT22;51144;53.002;6.506;2022-08-19T03:59:01;15.00;99.90
64715;DHT22;51144;53.002;6.506;2022-08-19T04:01:29;15.00;99.90
64715;DHT22;51144;53.002;6.506;2022-08-19T04:03:56;15.00;99.90
64715;DHT22;51144;53.002;6.506;2022-08-19T04:06:23;15.00;99.90
64715;DHT22;51144;53.002;6.506;2022-08-19T04:08:50;15.10;99.90
64715;DHT22;51144;53.002;6.506;2022-08-19T04:11:19;15.10;99.90
64715;DHT22;51144;53.002;6.506;2022-08-19T04:13:49;15.00;99.90
64715;DHT22;51144;53.002;6.506;2022-08-19T04:16:16;15.00;99.90
64715;DHT22;51144;53.002;6.506;2022-08-19T04:18:43;15.00;99.90
64715;DHT22;51144;53.002;6.506;2022-08-19T04:21:14;15.00;99.90
64715;DHT22;51144;53.002;6.506;2022-08-19T04:23:40;15.00;99.90
64715;DHT22;51144;53.002;6.506;2022-08-19T04:26:06;15.00;99.90
64715;DHT22;51144;53.002;6.506;2022-08-19T04:28:32;15.00;99.90
64715;DHT22;51144;53.002;6.506;2022-08-19T04:30:57;15.00;99.90
64715;DHT22;51144;53.002;6.506;2022-08-19T04:33:24;15.00;99.90
64715;DHT22;51144;53.002;6.506;2022-08-19T04:35:51;15.00;99.90
64715;DHT22;51144;53.002;6.506;2022-08-19T04:38:19;15.10;99.90
64715;DHT22;51144;53.002;6.506;2022-08-19T04:40:47;15.10;99.90
64715;DHT22;51144;53.002;6.506;2022-08-19T04:43:33;15.10;99.90
64715;DHT22;51144;53.002;6.506;2022-08-19T04:46:07;15.10;99.90
64715;DHT22;51144;53.002;6.506;2022-08-19T04:48:34;15.10;99.90
64715;DHT22;51144;53.002;6.506;2022-08-19T04:51:00;15.20;99.90
64715;DHT22;51144;53.002;6.506;2022-08-19T04:53:31;15.20;99.90
64715;DHT22;51144;53.002;6.506;2022-08-19T04:55:58;15.20;99.90
64715;DHT22;51144;53.002;6.506;2022-08-19T04:58:27;15.20;99.90
64715;DHT22;51144;53.002;6.506;2022-08-19T05:00:53;15.20;99.90
64715;DHT22;51144;53.002;6.506;2022-08-19T05:03:20;15.20;99.90
64715;DHT22;51144;53.002;6.506;2022-08-19T05:05:46;15.30;99.90
64715;DHT22;51144;53.002;6.506;2022-08-19T05:08:15;15.30;99.90
64715;DHT22;51144;53.002;6.506;2022-08-19T05:10:49;15.50;99.90
64715;DHT22;51144;53.002;6.506;2022-08-19T05:13:16;16.00;99.90
64715;DHT22;51144;53.002;6.506;2022-08-19T05:15:42;16.60;99.90
64715;DHT22;51144;53.002;6.506;2022-08-19T05:18:08;17.00;99.90
64715;DHT22;51144;53.002;6.506;2022-08-19T05:20:53;17.30;99.90
64715;DHT22;51144;53.002;6.506;2022-08-19T05:23:37;17.80;99.90
64715;DHT22;51144;53.002;6.506;2022-08-19T05:26:04;18.60;99.90
64715;DHT22;51144;53.002;6.506;2022-08-19T05:28:30;19.70;99.90
64715;DHT22;51144;53.002;6.506;2022-08-19T05:30:56;20.80;99.90
64715;DHT22;51144;53.002;6.506;2022-08-19T05:33:31;21.60;99.90
64715;DHT22;51144;53.002;6.506;2022-08-19T05:35:57;22.10;99.90
64715;DHT22;51144;53.002;6.506;2022-08-19T05:38:26;22.90;99.90
64715;DHT22;51144;53.002;6.506;2022-08-19T05:40:55;23.30;99.90
64715;DHT22;51144;53.002;6.506;2022-08-19T05:43:21;23.90;99.90
64715;DHT22;51144;53.002;6.506;2022-08-19T05:45:46;24.30;99.90
64715;DHT22;51144;53.002;6.506;2022-08-19T05:48:13;24.70;99.90
64715;DHT22;51144;53.002;6.506;2022-08-19T05:50:41;25.00;99.90
64715;DHT22;51144;53.002;6.506;2022-08-19T05:53:07;25.20;99.90
64715;DHT22;51144;53.002;6.506;2022-08-19T05:55:34;25.40;99.90
64715;DHT22;51144;53.002;6.506;2022-08-19T05:58:00;25.70;99.90
64715;DHT22;51144;53.002;6.506;2022-08-19T06:00:27;26.00;99.90
64715;DHT22;51144;53.002;6.506;2022-08-19T06:02:52;26.30;99.90
64715;DHT22;51144;53.002;6.506;2022-08-19T06:05:21;26.50;99.90
64715;DHT22;51144;53.002;6.506;2022-08-19T06:07:47;26.60;99.90
64715;DHT22;51144;53.002;6.506;2022-08-19T06:10:13;26.40;99.90
64715;DHT22;51144;53.002;6.506;2022-08-19T06:12:39;26.30;99.90
64715;DHT22;51144;53.002;6.506;2022-08-19T06:15:10;26.00;99.90
64715;DHT22;51144;53.002;6.506;2022-08-19T06:17:36;25.60;99.90
64715;DHT22;51144;53.002;6.506;2022-08-19T06:20:10;25.10;99.90
64715;DHT22;51144;53.002;6.506;2022-08-19T06:22:42;24.50;99.90
64715;DHT22;51144;53.002;6.506;2022-08-19T06:25:08;24.20;99.90
64715;DHT22;51144;53.002;6.506;2022-08-19T06:27:37;24.00;99.90
64715;DHT22;51144;53.002;6.506;2022-08-19T06:30:04;23.70;99.90
64715;DHT22;51144;53.002;6.506;2022-08-19T06:32:29;23.50;99.90
64715;DHT22;51144;53.002;6.506;2022-08-19T06:34:55;23.30;99.90
64715;DHT22;51144;53.002;6.506;2022-08-19T06:37:21;23.10;99.90
64715;DHT22;51144;53.002;6.506;2022-08-19T06:39:47;23.00;99.90
64715;DHT22;51144;53.002;6.506;2022-08-19T06:42:13;22.90;99.90
64715;DHT22;51144;53.002;6.506;2022-08-19T06:44:43;22.90;99.90
64715;DHT22;51144;53.002;6.506;2022-08-19T06:47:11;23.00;99.90
64715;DHT22;51144;53.002;6.506;2022-08-19T06:49:37;23.00;99.90
64715;DHT22;51144;53.002;6.506;2022-08-19T06:52:04;23.10;99.90
64715;DHT22;51144;53.002;6.506;2022-08-19T06:54:31;23.20;99.90
64715;DHT22;51144;53.002;6.506;2022-08-19T06:56:58;23.20;99.90
64715;DHT22;51144;53.002;6.506;2022-08-19T06:59:25;23.20;99.90
64715;DHT22;51144;53.002;6.506;2022-08-19T07:01:56;23.40;99.90
64715;DHT22;51144;53.002;6.506;2022-08-19T07:04:26;23.40;99.90
64715;DHT22;51144;53.002;6.506;2022-08-19T07:07:00;23.30;99.90
64715;DHT22;51144;53.002;6.506;2022-08-19T07:09:27;23.10;99.90
64715;DHT22;51144;53.002;6.506;2022-08-19T07:11:53;22.90;99.90
64715;DHT22;51144;53.002;6.506;2022-08-19T07:14:24;22.90;99.90
64715;DHT22;51144;53.002;6.506;2022-08-19T07:16:52;22.80;99.90
64715;DHT22;51144;53.002;6.506;2022-08-19T07:19:19;22.90;99.90
64715;DHT22;51144;53.002;6.506;2022-08-19T07:21:47;23.00;99.90
64715;DHT22;51144;53.002;6.506;2022-08-19T07:24:13;23.10;99.90
64715;DHT22;51144;53.002;6.506;2022-08-19T07:26:42;23.10;99.90
64715;DHT22;51144;53.002;6.506;2022-08-19T07:29:10;23.00;99.90
64715;DHT22;51144;53.002;6.506;2022-08-19T07:31:36;23.10;99.90
64715;DHT22;51144;53.002;6.506;2022-08-19T07:34:05;23.10;99.90
64715;DHT22;51144;53.002;6.506;2022-08-19T07:36:37;23.30;99.90
64715;DHT22;51144;53.002;6.506;2022-08-19T07:39:08;23.40;99.90
64715;DHT22;51144;53.002;6.506;2022-08-19T07:41:35;23.50;99.90
64715;DHT22;51144;53.002;6.506;2022-08-19T07:44:02;23.70;99.90
64715;DHT22;51144;53.002;6.506;2022-08-19T07:46:32;23.50;99.90
64715;DHT22;51144;53.002;6.506;2022-08-19T07:49:00;23.30;99.90
64715;DHT22;51144;53.002;6.506;2022-08-19T07:51:26;23.20;99.90
64715;DHT22;51144;53.002;6.506;2022-08-19T07:53:53;23.10;99.90
64715;DHT22;51144;53.002;6.506;2022-08-19T07:56:19;23.20;99.90
64715;DHT22;51144;53.002;6.506;2022-08-19T07:58:47;23.50;99.90
64715;DHT22;51144;53.002;6.506;2022-08-19T08:01:18;23.70;99.90
64715;DHT22;51144;53.002;6.506;2022-08-19T08:03:45;24.00;99.90
64715;DHT22;51144;53.002;6.506;2022-08-19T08:06:29;24.00;99.90
64715;DHT22;51144;53.002;6.506;2022-08-19T08:09:38;24.10;99.90
64715;DHT22;51144;53.002;6.506;2022-08-19T08:12:10;24.30;99.90
64715;DHT22;51144;53.002;6.506;2022-08-19T08:14:43;24.40;99.90
64715;DHT22;51144;53.002;6.506;2022-08-19T08:17:10;24.50;99.90
64715;DHT22;51144;53.002;6.506;2022-08-19T08:19:36;24.60;99.90
64715;DHT22;51144;53.002;6.506;2022-08-19T08:22:02;24.50;99.90
64715;DHT22;51144;53.002;6.506;2022-08-19T08:24:32;24.60;99.90
64715;DHT22;51144;53.002;6.506;2022-08-19T08:26:59;24.60;99.90
64715;DHT22;51144;53.002;6.506;2022-08-19T08:29:29;24.70;99.90
64715;DHT22;51144;53.002;6.506;2022-08-19T08:31:56;24.80;99.90
64715;DHT22;51144;53.002;6.506;2022-08-19T08:34:21;25.00;99.90
64715;DHT22;51144;53.002;6.506;2022-08-19T08:36:53;25.00;99.90
64715;DHT22;51144;53.002;6.506;2022-08-19T08:39:20;24.90;99.90
64715;DHT22;51144;53.002;6.506;2022-08-19T08:44:22;25.10;99.90
64715;DHT22;51144;53.002;6.506;2022-08-19T08:46:52;25.10;99.90
64715;DHT22;51144;53.002;6.506;2022-08-19T08:52:11;24.80;99.90
64715;DHT22;51144;53.002;6.506;2022-08-19T08:54:42;25.00;99.90
64715;DHT22;51144;53.002;6.506;2022-08-19T08:57:19;25.20;99.90
64715;DHT22;51144;53.002;6.506;2022-08-19T08:59:48;25.30;99.90
64715;DHT22;51144;53.002;6.506;2022-08-19T09:02:18;25.20;99.90
64715;DHT22;51144;53.002;6.506;2022-08-19T09:04:44;25.30;99.90
64715;DHT22;51144;53.002;6.506;2022-08-19T09:07:41;25.20;99.90
64715;DHT22;51144;53.002;6.506;2022-08-19T09:10:16;25.30;99.90
64715;DHT22;51144;53.002;6.506;2022-08-19T09:13:03;25.20;99.90
64715;DHT22;51144;53.002;6.506;2022-08-19T09:15:39;25.20;99.90
64715;DHT22;51144;53.002;6.506;2022-08-19T09:18:05;25.30;99.90
64715;DHT22;51144;53.002;6.506;2022-08-19T09:20:33;25.40;99.90
64715;DHT22;51144;53.002;6.506;2022-08-19T09:23:05;25.70;99.90
64715;DHT22;51144;53.002;6.506;2022-08-19T09:25:30;25.90;99.90
64715;DHT22;51144;53.002;6.506;2022-08-19T09:27:57;25.80;99.90
64715;DHT22;51144;53.002;6.506;2022-08-19T09:30:29;25.90;99.90
64715;DHT22;51144;53.002;6.506;2022-08-19T09:32:55;26.10;99.90
64715;DHT22;51144;53.002;6.506;2022-08-19T09:35:23;26.10;99.90
64715;DHT22;51144;53.002;6.506;2022-08-19T09:37:50;26.00;99.90
64715;DHT22;51144;53.002;6.506;2022-08-19T09:40:17;26.00;99.90
64715;DHT22;51144;53.002;6.506;2022-08-19T09:42:44;26.10;99.90
64715;DHT22;51144;53.002;6.506;2022-08-19T09:45:16;26.30;99.90
64715;DHT22;51144;53.002;6.506;2022-08-19T09:47:43;26.50;99.90
64715;DHT22;51144;53.002;6.506;2022-08-19T09:50:11;26.50;99.90
64715;DHT22;51144;53.002;6.506;2022-08-19T09:52:37;26.60;99.90
64715;DHT22;51144;53.002;6.506;2022-08-19T09:55:07;26.70;99.90
64715;DHT22;51144;53.002;6.506;2022-08-19T09:57:34;26.60;99.90
64715;DHT22;51144;53.002;6.506;2022-08-19T09:59:59;26.60;99.90
64715;DHT22;51144;53.002;6.506;2022-08-19T10:02:25;26.80;99.90
64715;DHT22;51144;53.002;6.506;2022-08-19T10:04:51;26.80;99.90
64715;DHT22;51144;53.002;6.506;2022-08-19T10:07:36;26.90;99.90
64715;DHT22;51144;53.002;6.506;2022-08-19T10:10:06;27.10;99.90
64715;DHT22;51144;53.002;6.506;2022-08-19T10:12:32;27.20;99.90
64715;DHT22;51144;53.002;6.506;2022-08-19T10:14:59;27.30;99.90
64715;DHT22;51144;53.002;6.506;2022-08-19T10:17:25;27.40;99.90
64715;DHT22;51144;53.002;6.506;2022-08-19T10:19:51;27.50;99.90
64715;DHT22;51144;53.002;6.506;2022-08-19T10:22:18;27.20;99.90
64715;DHT22;51144;53.002;6.506;2022-08-19T10:24:46;27.20;99.90
64715;DHT22;51144;53.002;6.506;2022-08-19T10:27:12;26.90;99.90
64715;DHT22;51144;53.002;6.506;2022-08-19T10:29:38;27.10;99.90
64715;DHT22;51144;53.002;6.506;2022-08-19T10:32:08;27.30;99.90
64715;DHT22;51144;53.002;6.506;2022-08-19T10:34:38;27.30;99.90
64715;DHT22;51144;53.002;6.506;2022-08-19T10:37:04;27.30;99.90
64715;DHT22;51144;53.002;6.506;2022-08-19T10:39:32;27.30;99.90
64715;DHT22;51144;53.002;6.506;2022-08-19T10:41:58;27.40;99.90
64715;DHT22;51144;53.002;6.506;2022-08-19T10:44:24;27.30;99.90
64715;DHT22;51144;53.002;6.506;2022-08-19T10:46:50;27.20;99.90
64715;DHT22;51144;53.002;6.506;2022-08-19T10:49:17;27.20;99.90
64715;DHT22;51144;53.002;6.506;2022-08-19T10:51:44;26.90;99.90
64715;DHT22;51144;53.002;6.506;2022-08-19T10:54:32;26.60;99.90
64715;DHT22;51144;53.002;6.506;2022-08-19T10:57:17;26.20;99.90
64715;DHT22;51144;53.002;6.506;2022-08-19T10:59:42;26.20;99.90
64715;DHT22;51144;53.002;6.506;2022-08-19T11:02:10;26.30;99.90
64715;DHT22;51144;53.002;6.506;2022-08-19T11:04:36;26.40;99.90
64715;DHT22;51144;53.002;6.506;2022-08-19T11:07:03;26.50;99.90
64715;DHT22;51144;53.002;6.506;2022-08-19T11:09:29;26.60;99.90
64715;DHT22;51144;53.002;6.506;2022-08-19T11:11:55;26.70;99.90
64715;DHT22;51144;53.002;6.506;2022-08-19T11:14:22;26.60;99.90
64715;DHT22;51144;53.002;6.506;2022-08-19T11:16:49;26.60;99.90
64715;DHT22;51144;53.002;6.506;2022-08-19T11:19:17;26.50;99.90
64715;DHT22;51144;53.002;6.506;2022-08-19T11:21:47;26.50;99.90
64715;DHT22;51144;53.002;6.506;2022-08-19T11:24:19;26.40;99.90
64715;DHT22;51144;53.002;6.506;2022-08-19T11:26:47;26.50;99.90
64715;DHT22;51144;53.002;6.506;2022-08-19T11:29:15;26.80;99.90
64715;DHT22;51144;53.002;6.506;2022-08-19T11:31:44;27.00;99.90
64715;DHT22;51144;53.002;6.506;2022-08-19T11:34:14;27.30;99.90
64715;DHT22;51144;53.002;6.506;2022-08-19T11:36:43;27.50;99.90
64715;DHT22;51144;53.002;6.506;2022-08-19T11:39:12;27.60;99.90
64715;DHT22;51144;53.002;6.506;2022-08-19T11:41:38;27.80;99.90
64715;DHT22;51144;53.002;6.506;2022-08-19T11:44:04;27.80;99.90
64715;DHT22;51144;53.002;6.506;2022-08-19T11:46:30;27.90;99.90
64715;DHT22;51144;53.002;6.506;2022-08-19T11:48:57;28.10;99.90
64715;DHT22;51144;53.002;6.506;2022-08-19T11:51:25;28.30;99.90
64715;DHT22;51144;53.002;6.506;2022-08-19T11:53:52;28.20;99.30
64715;DHT22;51144;53.002;6.506;2022-08-19T11:56:19;28.10;99.90
64715;DHT22;51144;53.002;6.506;2022-08-19T11:58:45;28.10;99.90
64715;DHT22;51144;53.002;6.506;2022-08-19T12:01:13;28.20;99.90
64715;DHT22;51144;53.002;6.506;2022-08-19T12:03:40;28.20;99.90
64715;DHT22;51144;53.002;6.506;2022-08-19T12:06:08;28.20;99.90
64715;DHT22;51144;53.002;6.506;2022-08-19T12:08:34;28.20;99.90
64715;DHT22;51144;53.002;6.506;2022-08-19T12:11:00;28.10;99.80
64715;DHT22;51144;53.002;6.506;2022-08-19T12:13:30;28.10;98.90
64715;DHT22;51144;53.002;6.506;2022-08-19T12:15:56;27.90;99.20
64715;DHT22;51144;53.002;6.506;2022-08-19T12:18:22;27.90;97.80
64715;DHT22;51144;53.002;6.506;2022-08-19T12:20:53;28.00;98.80
64715;DHT22;51144;53.002;6.506;2022-08-19T12:23:20;27.90;96.20
64715;DHT22;51144;53.002;6.506;2022-08-19T12:25:47;28.00;96.00
64715;DHT22;51144;53.002;6.506;2022-08-19T12:28:21;28.20;97.80
64715;DHT22;51144;53.002;6.506;2022-08-19T12:30:48;28.30;96.80
64715;DHT22;51144;53.002;6.506;2022-08-19T12:33:16;28.40;98.20
64715;DHT22;51144;53.002;6.506;2022-08-19T12:35:43;28.60;97.60
64715;DHT22;51144;53.002;6.506;2022-08-19T12:38:13;28.80;97.80
64715;DHT22;51144;53.002;6.506;2022-08-19T12:40:40;28.80;98.00
64715;DHT22;51144;53.002;6.506;2022-08-19T12:43:06;29.00;98.40
64715;DHT22;51144;53.002;6.506;2022-08-19T12:45:32;29.00;96.50
64715;DHT22;51144;53.002;6.506;2022-08-19T12:47:58;29.00;98.10
64715;DHT22;51144;53.002;6.506;2022-08-19T12:50:24;29.00;96.70
64715;DHT22;51144;53.002;6.506;2022-08-19T12:52:50;29.00;97.20
64715;DHT22;51144;53.002;6.506;2022-08-19T12:55:18;29.00;97.80
64715;DHT22;51144;53.002;6.506;2022-08-19T12:57:45;28.70;97.20
64715;DHT22;51144;53.002;6.506;2022-08-19T13:00:13;28.50;96.30
64715;DHT22;51144;53.002;6.506;2022-08-19T13:02:42;28.30;94.40
64715;DHT22;51144;53.002;6.506;2022-08-19T13:05:12;28.00;94.80
64715;DHT22;51144;53.002;6.506;2022-08-19T13:07:41;28.00;96.40
64715;DHT22;51144;53.002;6.506;2022-08-19T13:10:10;27.80;95.70
64715;DHT22;51144;53.002;6.506;2022-08-19T13:12:37;27.60;95.60
64715;DHT22;51144;53.002;6.506;2022-08-19T13:15:13;27.50;96.30
64715;DHT22;51144;53.002;6.506;2022-08-19T13:17:39;27.60;97.40
64715;DHT22;51144;53.002;6.506;2022-08-19T13:20:06;27.70;97.50
64715;DHT22;51144;53.002;6.506;2022-08-19T13:22:36;27.70;97.70
64715;DHT22;51144;53.002;6.506;2022-08-19T13:25:04;27.60;97.60
64715;DHT22;51144;53.002;6.506;2022-08-19T13:27:30;27.50;98.00
64715;DHT22;51144;53.002;6.506;2022-08-19T13:29:56;27.30;97.90
64715;DHT22;51144;53.002;6.506;2022-08-19T13:32:40;27.30;99.90
64715;DHT22;51144;53.002;6.506;2022-08-19T13:35:24;26.70;99.90
64715;DHT22;51144;53.002;6.506;2022-08-19T13:37:49;26.40;99.90
64715;DHT22;51144;53.002;6.506;2022-08-19T13:40:20;26.00;99.90
64715;DHT22;51144;53.002;6.506;2022-08-19T13:42:50;25.80;99.90
64715;DHT22;51144;53.002;6.506;2022-08-19T13:45:18;25.60;99.90
64715;DHT22;51144;53.002;6.506;2022-08-19T13:47:49;25.40;99.90
64715;DHT22;51144;53.002;6.506;2022-08-19T13:50:22;25.10;99.90
64715;DHT22;51144;53.002;6.506;2022-08-19T13:52:48;24.90;99.90
64715;DHT22;51144;53.002;6.506;2022-08-19T13:55:14;24.90;99.90
64715;DHT22;51144;53.002;6.506;2022-08-19T13:57:43;24.80;99.90
64715;DHT22;51144;53.002;6.506;2022-08-19T14:00:13;24.70;99.90
64715;DHT22;51144;53.002;6.506;2022-08-19T14:02:39;24.80;99.90
64715;DHT22;51144;53.002;6.506;2022-08-19T14:05:07;24.80;99.90
64715;DHT22;51144;53.002;6.506;2022-08-19T14:07:33;24.70;99.90
64715;DHT22;51144;53.002;6.506;2022-08-19T14:09:58;24.80;99.90
64715;DHT22;51144;53.002;6.506;2022-08-19T14:12:24;25.00;99.90
64715;DHT22;51144;53.002;6.506;2022-08-19T14:14:50;25.20;99.90
64715;DHT22;51144;53.002;6.506;2022-08-19T14:17:15;25.20;99.90
64715;DHT22;51144;53.002;6.506;2022-08-19T14:19:41;25.10;99.90
64715;DHT22;51144;53.002;6.506;2022-08-19T14:22:07;24.90;99.90
64715;DHT22;51144;53.002;6.506;2022-08-19T14:24:33;24.80;99.90
64715;DHT22;51144;53.002;6.506;2022-08-19T14:26:59;24.80;99.90
64715;DHT22;51144;53.002;6.506;2022-08-19T14:29:25;24.90;99.90
64715;DHT22;51144;53.002;6.506;2022-08-19T14:31:50;24.90;99.90
64715;DHT22;51144;53.002;6.506;2022-08-19T14:34:16;24.90;99.90
64715;DHT22;51144;53.002;6.506;2022-08-19T14:36:42;25.00;99.90
64715;DHT22;51144;53.002;6.506;2022-08-19T14:39:08;25.00;99.90
64715;DHT22;51144;53.002;6.506;2022-08-19T14:41:36;24.90;99.90
64715;DHT22;51144;53.002;6.506;2022-08-19T14:44:04;25.00;99.90
64715;DHT22;51144;53.002;6.506;2022-08-19T14:46:30;25.10;99.90
64715;DHT22;51144;53.002;6.506;2022-08-19T14:48:56;24.90;99.90
64715;DHT22;51144;53.002;6.506;2022-08-19T14:51:23;24.90;99.90
64715;DHT22;51144;53.002;6.506;2022-08-19T14:53:49;24.80;99.90
64715;DHT22;51144;53.002;6.506;2022-08-19T14:56:19;24.80;99.90
64715;DHT22;51144;53.002;6.506;2022-08-19T14:58:48;24.80;99.90
64715;DHT22;51144;53.002;6.506;2022-08-19T15:01:17;24.70;99.90
64715;DHT22;51144;53.002;6.506;2022-08-19T15:03:43;24.80;99.90
64715;DHT22;51144;53.002;6.506;2022-08-19T15:06:09;24.90;99.90
64715;DHT22;51144;53.002;6.506;2022-08-19T15:08:36;25.00;99.90
64715;DHT22;51144;53.002;6.506;2022-08-19T15:11:08;25.00;99.90
64715;DHT22;51144;53.002;6.506;2022-08-19T15:13:35;24.90;99.90
64715;DHT22;51144;53.002;6.506;2022-08-19T15:16:01;25.00;99.90
64715;DHT22;51144;53.002;6.506;2022-08-19T15:18:26;25.00;99.90
64715;DHT22;51144;53.002;6.506;2022-08-19T15:20:53;25.10;99.90
64715;DHT22;51144;53.002;6.506;2022-08-19T15:23:22;25.00;99.90
64715;DHT22;51144;53.002;6.506;2022-08-19T15:25:48;25.00;99.90
64715;DHT22;51144;53.002;6.506;2022-08-19T15:28:17;25.00;99.90
64715;DHT22;51144;53.002;6.506;2022-08-19T15:30:42;25.00;99.90
64715;DHT22;51144;53.002;6.506;2022-08-19T15:33:10;25.00;99.90
64715;DHT22;51144;53.002;6.506;2022-08-19T15:35:40;24.90;99.90
64715;DHT22;51144;53.002;6.506;2022-08-19T15:38:07;24.80;99.90
64715;DHT22;51144;53.002;6.506;2022-08-19T15:40:33;24.80;99.90
64715;DHT22;51144;53.002;6.506;2022-08-19T15:42:59;24.70;99.90